sensor_id;sensor_type;location;lat;lon;timestamp;P1;durP1;ratioP1;P2;durP2;ratioP2
2892;SDS011;1456;51.840;12.184;2024-01-15T00:01:46;12.70;;;5.73;;
2892;SDS011;1456;51.840;12.184;2024-01-15T00:04:11;9.90;;;5.07;;
2892;SDS011;1456;51.840;12.184;2024-01-15T00:06:37;6.13;;;3.83;;
2892;SDS011;1456;51.840;12.184;2024-01-15T00:09:03;7.27;;;4.97;;
2892;SDS011;1456;51.840;12.184;2024-01-15T00:11:28;8.20;;;4.93;;
2892;SDS011;1456;51.840;12.184;2024-01-15T00:13:54;10.30;;;5.87;;
2892;SDS011;1456;51.840;12.184;2024-01-15T00:16:19;11.03;;;6.20;;
2892;SDS011;1456;51.840;12.184;2024-01-15T00:18:45;10.17;;;4.80;;
2892;SDS011;1456;51.840;12.184;2024-01-15T00:21:11;10.67;;;5.83;;
2892;SDS011;1456;51.840;12.184;2024-01-15T00:23:36;12.90;;;6.37;;
2892;SDS011;1456;51.840;12.184;2024-01-15T00:26:02;12.87;;;7.30;;
2892;SDS011;1456;51.840;12.184;2024-01-15T00:28:27;6.50;;;5.00;;
2892;SDS011;1456;51.840;12.184;2024-01-15T00:30:53;12.57;;;7.00;;
2892;SDS011;1456;51.840;12.184;2024-01-15T00:33:19;9.17;;;7.10;;
2892;SDS011;1456;51.840;12.184;2024-01-15T00:35:44;8.40;;;7.30;;
2892;SDS011;1456;51.840;12.184;2024-01-15T00:38:10;7.37;;;5.87;;
2892;SDS011;1456;51.840;12.184;2024-01-15T00:40:35;8.90;;;7.50;;
2892;SDS011;1456;51.840;12.184;2024-01-15T00:43:02;9.07;;;6.10;;
2892;SDS011;1456;51.840;12.184;2024-01-15T00:45:28;9.27;;;6.80;;
2892;SDS011;1456;51.840;12.184;2024-01-15T00:47:54;9.27;;;6.63;;
2892;SDS011;1456;51.840;12.184;2024-01-15T00:50:21;8.53;;;6.67;;
2892;SDS011;1456;51.840;12.184;2024-01-15T00:52:47;6.73;;;5.97;;
2892;SDS011;1456;51.840;12.184;2024-01-15T00:55:12;7.23;;;6.03;;
2892;SDS011;1456;51.840;12.184;2024-01-15T00:57:38;7.17;;;6.47;;
2892;SDS011;1456;51.840;12.184;2024-01-15T01:00:04;7.47;;;5.80;;
2892;SDS011;1456;51.840;12.184;2024-01-15T01:02:31;11.90;;;6.83;;
2892;SDS011;1456;51.840;12.184;2024-01-15T01:04:57;7.07;;;6.40;;
2892;SDS011;1456;51.840;12.184;2024-01-15T01:07:22;5.70;;;5.10;;
2892;SDS011;1456;51.840;12.184;2024-01-15T01:09:48;7.37;;;6.57;;
2892;SDS011;1456;51.840;12.184;2024-01-15T01:12:14;8.60;;;6.40;;
2892;SDS011;1456;51.840;12.184;2024-01-15T01:14:40;6.50;;;5.70;;
2892;SDS011;1456;51.840;12.184;2024-01-15T01:17:05;8.83;;;7.20;;
2892;SDS011;1456;51.840;12.184;2024-01-15T01:19:31;14.10;;;7.40;;
2892;SDS011;1456;51.840;12.184;2024-01-15T01:21:57;6.43;;;5.37;;
2892;SDS011;1456;51.840;12.184;2024-01-15T01:24:23;12.50;;;8.80;;
2892;SDS011;1456;51.840;12.184;2024-01-15T01:26:49;10.73;;;7.53;;
2892;SDS011;1456;51.840;12.184;2024-01-15T01:29:14;14.97;;;7.73;;
2892;SDS011;1456;51.840;12.184;2024-01-15T01:31:43;9.73;;;7.00;;
2892;SDS011;1456;51.840;12.184;2024-01-15T01:34:10;10.00;;;7.97;;
2892;SDS011;1456;51.840;12.184;2024-01-15T01:36:35;9.90;;;7.50;;
2892;SDS011;1456;51.840;12.184;2024-01-15T01:39:03;10.37;;;7.87;;
2892;SDS011;1456;51.840;12.184;2024-01-15T01:41:28;8.87;;;7.47;;
2892;SDS011;1456;51.840;12.184;2024-01-15T01:43:54;13.13;;;8.37;;
2892;SDS011;1456;51.840;12.184;2024-01-15T01:46:20;10.10;;;6.97;;
2892;SDS011;1456;51.840;12.184;2024-01-15T01:48:46;13.87;;;7.70;;
2892;SDS011;1456;51.840;12.184;2024-01-15T01:51:13;10.90;;;6.90;;
2892;SDS011;1456;51.840;12.184;2024-01-15T01:53:39;11.83;;;6.97;;
2892;SDS011;1456;51.840;12.184;2024-01-15T01:56:05;8.17;;;6.27;;
2892;SDS011;1456;51.840;12.184;2024-01-15T01:58:32;9.67;;;6.37;;
2892;SDS011;1456;51.840;12.184;2024-01-15T02:00:58;8.73;;;6.13;;
2892;SDS011;1456;51.840;12.184;2024-01-15T02:03:25;7.67;;;6.30;;
2892;SDS011;1456;51.840;12.184;2024-01-15T02:05:52;6.40;;;5.80;;
2892;SDS011;1456;51.840;12.184;2024-01-15T02:08:18;6.23;;;5.63;;
2892;SDS011;1456;51.840;12.184;2024-01-15T02:10:44;6.00;;;5.50;;
2892;SDS011;1456;51.840;12.184;2024-01-15T02:13:09;6.60;;;6.00;;
2892;SDS011;1456;51.840;12.184;2024-01-15T02:15:35;10.30;;;5.67;;
2892;SDS011;1456;51.840;12.184;2024-01-15T02:18:02;6.57;;;5.97;;
2892;SDS011;1456;51.840;12.184;2024-01-15T02:20:29;7.63;;;7.13;;
2892;SDS011;1456;51.840;12.184;2024-01-15T02:23:14;8.00;;;5.40;;
2892;SDS011;1456;51.840;12.184;2024-01-15T02:25:45;5.73;;;5.20;;
2892;SDS011;1456;51.840;12.184;2024-01-15T02:28:11;6.77;;;6.23;;
2892;SDS011;1456;51.840;12.184;2024-01-15T02:30:39;6.13;;;5.57;;
2892;SDS011;1456;51.840;12.184;2024-01-15T02:33:09;6.20;;;5.60;;
2892;SDS011;1456;51.840;12.184;2024-01-15T02:35:36;9.07;;;5.60;;
2892;SDS011;1456;51.840;12.184;2024-01-15T02:38:02;4.93;;;4.43;;
2892;SDS011;1456;51.840;12.184;2024-01-15T02:40:29;5.77;;;5.20;;
2892;SDS011;1456;51.840;12.184;2024-01-15T02:42:54;6.90;;;5.37;;
2892;SDS011;1456;51.840;12.184;2024-01-15T02:45:20;6.97;;;5.90;;
2892;SDS011;1456;51.840;12.184;2024-01-15T02:47:47;5.60;;;5.20;;
2892;SDS011;1456;51.840;12.184;2024-01-15T02:50:12;5.87;;;5.40;;
2892;SDS011;1456;51.840;12.184;2024-01-15T02:52:38;8.47;;;5.57;;
2892;SDS011;1456;51.840;12.184;2024-01-15T02:55:04;5.67;;;5.10;;
2892;SDS011;1456;51.840;12.184;2024-01-15T02:57:30;6.37;;;5.70;;
2892;SDS011;1456;51.840;12.184;2024-01-15T02:59:56;5.87;;;5.40;;
2892;SDS011;1456;51.840;12.184;2024-01-15T03:02:21;8.47;;;7.00;;
2892;SDS011;1456;51.840;12.184;2024-01-15T03:04:47;10.27;;;7.40;;
2892;SDS011;1456;51.840;12.184;2024-01-15T03:07:13;12.80;;;8.67;;
2892;SDS011;1456;51.840;12.184;2024-01-15T03:09:38;16.00;;;8.80;;
2892;SDS011;1456;51.840;12.184;2024-01-15T03:12:04;14.33;;;9.10;;
2892;SDS011;1456;51.840;12.184;2024-01-15T03:14:30;12.53;;;8.43;;
2892;SDS011;1456;51.840;12.184;2024-01-15T03:16:56;15.53;;;10.37;;
2892;SDS011;1456;51.840;12.184;2024-01-15T03:19:21;13.30;;;8.67;;
2892;SDS011;1456;51.840;12.184;2024-01-15T03:21:47;16.50;;;8.90;;
2892;SDS011;1456;51.840;12.184;2024-01-15T03:24:13;16.53;;;9.90;;
2892;SDS011;1456;51.840;12.184;2024-01-15T03:26:38;13.23;;;7.40;;
2892;SDS011;1456;51.840;12.184;2024-01-15T03:29:04;12.57;;;8.87;;
2892;SDS011;1456;51.840;12.184;2024-01-15T03:31:31;12.60;;;8.50;;
2892;SDS011;1456;51.840;12.184;2024-01-15T03:33:56;13.67;;;7.93;;
2892;SDS011;1456;51.840;12.184;2024-01-15T03:36:22;12.50;;;8.17;;
2892;SDS011;1456;51.840;12.184;2024-01-15T03:38:48;13.80;;;8.57;;
2892;SDS011;1456;51.840;12.184;2024-01-15T03:41:14;12.40;;;7.30;;
2892;SDS011;1456;51.840;12.184;2024-01-15T03:43:39;9.20;;;6.70;;
2892;SDS011;1456;51.840;12.184;2024-01-15T03:46:05;15.00;;;7.27;;
2892;SDS011;1456;51.840;12.184;2024-01-15T03:48:31;9.07;;;6.70;;
2892;SDS011;1456;51.840;12.184;2024-01-15T03:50:57;9.80;;;6.90;;
2892;SDS011;1456;51.840;12.184;2024-01-15T03:53:22;8.13;;;7.33;;
2892;SDS011;1456;51.840;12.184;2024-01-15T03:55:49;11.27;;;6.90;;
2892;SDS011;1456;51.840;12.184;2024-01-15T03:58:15;8.33;;;6.93;;
2892;SDS011;1456;51.840;12.184;2024-01-15T04:00:41;7.50;;;6.30;;
2892;SDS011;1456;51.840;12.184;2024-01-15T04:03:07;9.33;;;6.80;;
2892;SDS011;1456;51.840;12.184;2024-01-15T04:05:33;8.70;;;6.77;;
2892;SDS011;1456;51.840;12.184;2024-01-15T04:07:59;10.20;;;6.70;;
2892;SDS011;1456;51.840;12.184;2024-01-15T04:10:24;7.40;;;5.97;;
2892;SDS011;1456;51.840;12.184;2024-01-15T04:12:50;8.23;;;6.40;;
2892;SDS011;1456;51.840;12.184;2024-01-15T04:15:16;6.47;;;5.87;;
2892;SDS011;1456;51.840;12.184;2024-01-15T04:17:41;9.17;;;6.27;;
2892;SDS011;1456;51.840;12.184;2024-01-15T04:20:07;11.00;;;7.30;;
2892;SDS011;1456;51.840;12.184;2024-01-15T04:22:36;10.33;;;7.20;;
2892;SDS011;1456;51.840;12.184;2024-01-15T04:25:02;7.07;;;6.17;;
2892;SDS011;1456;51.840;12.184;2024-01-15T04:27:28;9.03;;;6.73;;
2892;SDS011;1456;51.840;12.184;2024-01-15T04:29:54;7.67;;;6.87;;
2892;SDS011;1456;51.840;12.184;2024-01-15T04:32:20;10.73;;;6.53;;
2892;SDS011;1456;51.840;12.184;2024-01-15T04:34:45;7.33;;;6.20;;
2892;SDS011;1456;51.840;12.184;2024-01-15T04:37:11;9.63;;;7.23;;
2892;SDS011;1456;51.840;12.184;2024-01-15T04:39:38;8.83;;;6.03;;
2892;SDS011;1456;51.840;12.184;2024-01-15T04:42:04;12.30;;;7.10;;
2892;SDS011;1456;51.840;12.184;2024-01-15T04:44:29;10.30;;;6.10;;
2892;SDS011;1456;51.840;12.184;2024-01-15T04:46:55;11.67;;;6.33;;
2892;SDS011;1456;51.840;12.184;2024-01-15T04:49:21;8.07;;;4.67;;
2892;SDS011;1456;51.840;12.184;2024-01-15T04:51:46;6.00;;;4.67;;
2892;SDS011;1456;51.840;12.184;2024-01-15T04:54:12;9.03;;;6.30;;
2892;SDS011;1456;51.840;12.184;2024-01-15T04:56:38;9.87;;;6.03;;
2892;SDS011;1456;51.840;12.184;2024-01-15T04:59:03;6.00;;;5.37;;
2892;SDS011;1456;51.840;12.184;2024-01-15T05:01:32;7.47;;;5.50;;
2892;SDS011;1456;51.840;12.184;2024-01-15T05:03:58;5.63;;;5.00;;
2892;SDS011;1456;51.840;12.184;2024-01-15T05:06:24;5.23;;;4.73;;
2892;SDS011;1456;51.840;12.184;2024-01-15T05:08:50;5.03;;;4.60;;
2892;SDS011;1456;51.840;12.184;2024-01-15T05:11:15;5.27;;;4.70;;
2892;SDS011;1456;51.840;12.184;2024-01-15T05:13:41;7.40;;;5.53;;
2892;SDS011;1456;51.840;12.184;2024-01-15T05:16:07;6.03;;;4.97;;
2892;SDS011;1456;51.840;12.184;2024-01-15T05:18:33;8.40;;;7.07;;
2892;SDS011;1456;51.840;12.184;2024-01-15T05:20:58;7.80;;;5.00;;
2892;SDS011;1456;51.840;12.184;2024-01-15T05:23:24;8.47;;;5.10;;
2892;SDS011;1456;51.840;12.184;2024-01-15T05:25:50;7.10;;;5.60;;
2892;SDS011;1456;51.840;12.184;2024-01-15T05:28:15;7.47;;;6.60;;
2892;SDS011;1456;51.840;12.184;2024-01-15T05:30:41;9.10;;;6.50;;
2892;SDS011;1456;51.840;12.184;2024-01-15T05:33:07;11.47;;;6.13;;
2892;SDS011;1456;51.840;12.184;2024-01-15T05:35:33;6.03;;;5.30;;
2892;SDS011;1456;51.840;12.184;2024-01-15T05:37:59;8.03;;;4.97;;
2892;SDS011;1456;51.840;12.184;2024-01-15T05:40:25;5.70;;;5.20;;
2892;SDS011;1456;51.840;12.184;2024-01-15T05:42:50;7.97;;;4.93;;
2892;SDS011;1456;51.840;12.184;2024-01-15T05:45:16;6.10;;;4.97;;
2892;SDS011;1456;51.840;12.184;2024-01-15T05:47:42;6.77;;;5.40;;
2892;SDS011;1456;51.840;12.184;2024-01-15T05:50:09;6.90;;;4.30;;
2892;SDS011;1456;51.840;12.184;2024-01-15T05:52:35;4.97;;;4.03;;
2892;SDS011;1456;51.840;12.184;2024-01-15T05:55:00;5.60;;;5.10;;
2892;SDS011;1456;51.840;12.184;2024-01-15T05:57:26;3.93;;;3.60;;
2892;SDS011;1456;51.840;12.184;2024-01-15T05:59:52;7.70;;;4.40;;
2892;SDS011;1456;51.840;12.184;2024-01-15T06:02:18;3.13;;;2.70;;
2892;SDS011;1456;51.840;12.184;2024-01-15T06:04:44;3.00;;;2.30;;
2892;SDS011;1456;51.840;12.184;2024-01-15T06:07:09;3.50;;;3.20;;
2892;SDS011;1456;51.840;12.184;2024-01-15T06:09:35;3.67;;;3.40;;
2892;SDS011;1456;51.840;12.184;2024-01-15T06:12:01;8.73;;;3.50;;
2892;SDS011;1456;51.840;12.184;2024-01-15T06:14:26;4.17;;;3.77;;
2892;SDS011;1456;51.840;12.184;2024-01-15T06:16:52;5.27;;;3.60;;
2892;SDS011;1456;51.840;12.184;2024-01-15T06:19:18;7.50;;;4.17;;
2892;SDS011;1456;51.840;12.184;2024-01-15T06:21:43;3.53;;;3.03;;
2892;SDS011;1456;51.840;12.184;2024-01-15T06:24:09;3.23;;;2.73;;
2892;SDS011;1456;51.840;12.184;2024-01-15T06:26:35;3.17;;;2.90;;
2892;SDS011;1456;51.840;12.184;2024-01-15T06:29:01;2.97;;;2.77;;
2892;SDS011;1456;51.840;12.184;2024-01-15T06:31:28;4.50;;;3.73;;
2892;SDS011;1456;51.840;12.184;2024-01-15T06:33:53;2.80;;;2.63;;
2892;SDS011;1456;51.840;12.184;2024-01-15T06:36:20;4.20;;;4.10;;
2892;SDS011;1456;51.840;12.184;2024-01-15T06:38:45;3.83;;;3.27;;
2892;SDS011;1456;51.840;12.184;2024-01-15T06:41:11;3.87;;;3.67;;
2892;SDS011;1456;51.840;12.184;2024-01-15T06:43:37;4.03;;;3.73;;
2892;SDS011;1456;51.840;12.184;2024-01-15T06:46:02;4.87;;;3.63;;
2892;SDS011;1456;51.840;12.184;2024-01-15T06:48:28;4.40;;;4.10;;
2892;SDS011;1456;51.840;12.184;2024-01-15T06:50:54;3.47;;;3.27;;
2892;SDS011;1456;51.840;12.184;2024-01-15T06:53:19;4.43;;;4.10;;
2892;SDS011;1456;51.840;12.184;2024-01-15T06:55:45;4.23;;;3.93;;
2892;SDS011;1456;51.840;12.184;2024-01-15T06:58:11;5.63;;;3.57;;
2892;SDS011;1456;51.840;12.184;2024-01-15T07:00:37;4.10;;;3.90;;
2892;SDS011;1456;51.840;12.184;2024-01-15T07:03:03;4.87;;;4.50;;
2892;SDS011;1456;51.840;12.184;2024-01-15T07:05:29;4.70;;;4.50;;
2892;SDS011;1456;51.840;12.184;2024-01-15T07:07:55;3.60;;;3.40;;
2892;SDS011;1456;51.840;12.184;2024-01-15T07:10:21;4.97;;;4.33;;
2892;SDS011;1456;51.840;12.184;2024-01-15T07:12:47;4.57;;;4.30;;
2892;SDS011;1456;51.840;12.184;2024-01-15T07:15:13;4.83;;;4.43;;
2892;SDS011;1456;51.840;12.184;2024-01-15T07:17:39;4.07;;;3.87;;
2892;SDS011;1456;51.840;12.184;2024-01-15T07:20:08;4.20;;;3.20;;
2892;SDS011;1456;51.840;12.184;2024-01-15T07:22:37;4.10;;;3.60;;
2892;SDS011;1456;51.840;12.184;2024-01-15T07:25:04;3.57;;;3.37;;
2892;SDS011;1456;51.840;12.184;2024-01-15T07:27:30;5.03;;;4.70;;
2892;SDS011;1456;51.840;12.184;2024-01-15T07:29:56;6.23;;;5.00;;
2892;SDS011;1456;51.840;12.184;2024-01-15T07:32:23;3.77;;;3.47;;
2892;SDS011;1456;51.840;12.184;2024-01-15T07:34:49;3.20;;;3.00;;
2892;SDS011;1456;51.840;12.184;2024-01-15T07:37:14;3.77;;;2.80;;
2892;SDS011;1456;51.840;12.184;2024-01-15T07:39:40;7.83;;;3.60;;
2892;SDS011;1456;51.840;12.184;2024-01-15T07:42:06;4.10;;;3.80;;
2892;SDS011;1456;51.840;12.184;2024-01-15T07:44:32;4.00;;;3.80;;
2892;SDS011;1456;51.840;12.184;2024-01-15T07:46:58;4.27;;;3.30;;
2892;SDS011;1456;51.840;12.184;2024-01-15T07:49:23;4.50;;;4.00;;
2892;SDS011;1456;51.840;12.184;2024-01-15T07:51:49;4.43;;;3.53;;
2892;SDS011;1456;51.840;12.184;2024-01-15T07:54:15;4.27;;;3.87;;
2892;SDS011;1456;51.840;12.184;2024-01-15T07:56:59;4.60;;;3.00;;
2892;SDS011;1456;51.840;12.184;2024-01-15T07:59:28;3.43;;;2.90;;
2892;SDS011;1456;51.840;12.184;2024-01-15T08:01:54;3.73;;;3.03;;
2892;SDS011;1456;51.840;12.184;2024-01-15T08:04:20;3.27;;;2.50;;
2892;SDS011;1456;51.840;12.184;2024-01-15T08:06:49;7.90;;;3.07;;
2892;SDS011;1456;51.840;12.184;2024-01-15T08:09:15;2.43;;;2.27;;
2892;SDS011;1456;51.840;12.184;2024-01-15T08:11:40;3.13;;;2.90;;
2892;SDS011;1456;51.840;12.184;2024-01-15T08:14:07;2.70;;;2.50;;
2892;SDS011;1456;51.840;12.184;2024-01-15T08:16:33;3.20;;;2.90;;
2892;SDS011;1456;51.840;12.184;2024-01-15T08:18:59;2.33;;;2.23;;
2892;SDS011;1456;51.840;12.184;2024-01-15T08:21:25;3.70;;;3.13;;
2892;SDS011;1456;51.840;12.184;2024-01-15T08:23:53;2.57;;;2.37;;
2892;SDS011;1456;51.840;12.184;2024-01-15T08:26:19;2.70;;;2.50;;
2892;SDS011;1456;51.840;12.184;2024-01-15T08:28:44;4.20;;;2.73;;
2892;SDS011;1456;51.840;12.184;2024-01-15T08:31:10;2.40;;;2.20;;
2892;SDS011;1456;51.840;12.184;2024-01-15T08:33:35;5.17;;;2.70;;
2892;SDS011;1456;51.840;12.184;2024-01-15T08:36:01;3.30;;;2.00;;
2892;SDS011;1456;51.840;12.184;2024-01-15T08:38:27;2.70;;;1.97;;
2892;SDS011;1456;51.840;12.184;2024-01-15T08:40:53;2.37;;;2.17;;
2892;SDS011;1456;51.840;12.184;2024-01-15T08:43:21;4.60;;;3.43;;
2892;SDS011;1456;51.840;12.184;2024-01-15T08:45:47;2.53;;;2.33;;
2892;SDS011;1456;51.840;12.184;2024-01-15T08:48:13;2.40;;;2.20;;
2892;SDS011;1456;51.840;12.184;2024-01-15T08:50:39;2.20;;;2.00;;
2892;SDS011;1456;51.840;12.184;2024-01-15T08:53:04;2.50;;;2.40;;
2892;SDS011;1456;51.840;12.184;2024-01-15T08:55:30;5.13;;;2.60;;
2892;SDS011;1456;51.840;12.184;2024-01-15T08:57:56;3.80;;;3.50;;
2892;SDS011;1456;51.840;12.184;2024-01-15T09:00:21;2.33;;;2.23;;
2892;SDS011;1456;51.840;12.184;2024-01-15T09:02:47;4.37;;;3.03;;
2892;SDS011;1456;51.840;12.184;2024-01-15T09:05:13;5.50;;;3.47;;
2892;SDS011;1456;51.840;12.184;2024-01-15T09:07:38;2.37;;;2.10;;
2892;SDS011;1456;51.840;12.184;2024-01-15T09:10:04;2.47;;;1.50;;
2892;SDS011;1456;51.840;12.184;2024-01-15T09:12:30;2.63;;;2.43;;
2892;SDS011;1456;51.840;12.184;2024-01-15T09:14:56;6.50;;;2.23;;
2892;SDS011;1456;51.840;12.184;2024-01-15T09:17:21;2.47;;;2.27;;
2892;SDS011;1456;51.840;12.184;2024-01-15T09:19:50;2.00;;;1.90;;
2892;SDS011;1456;51.840;12.184;2024-01-15T09:22:15;2.33;;;2.23;;
2892;SDS011;1456;51.840;12.184;2024-01-15T09:24:47;4.40;;;3.87;;
2892;SDS011;1456;51.840;12.184;2024-01-15T09:27:12;2.40;;;2.27;;
2892;SDS011;1456;51.840;12.184;2024-01-15T09:29:38;2.40;;;2.30;;
2892;SDS011;1456;51.840;12.184;2024-01-15T09:32:06;3.47;;;2.40;;
2892;SDS011;1456;51.840;12.184;2024-01-15T09:34:33;3.43;;;2.80;;
2892;SDS011;1456;51.840;12.184;2024-01-15T09:36:59;2.93;;;2.80;;
2892;SDS011;1456;51.840;12.184;2024-01-15T09:39:28;3.43;;;2.77;;
2892;SDS011;1456;51.840;12.184;2024-01-15T09:41:53;2.43;;;2.30;;
2892;SDS011;1456;51.840;12.184;2024-01-15T09:44:19;3.10;;;2.47;;
2892;SDS011;1456;51.840;12.184;2024-01-15T09:46:46;2.67;;;2.33;;
2892;SDS011;1456;51.840;12.184;2024-01-15T09:49:15;2.70;;;2.60;;
2892;SDS011;1456;51.840;12.184;2024-01-15T09:51:41;2.53;;;2.33;;
2892;SDS011;1456;51.840;12.184;2024-01-15T09:54:07;1.87;;;1.77;;
2892;SDS011;1456;51.840;12.184;2024-01-15T09:56:34;4.20;;;2.80;;
2892;SDS011;1456;51.840;12.184;2024-01-15T09:59:00;2.67;;;2.57;;
2892;SDS011;1456;51.840;12.184;2024-01-15T10:01:26;2.57;;;2.40;;
2892;SDS011;1456;51.840;12.184;2024-01-15T10:03:54;1.80;;;1.70;;
2892;SDS011;1456;51.840;12.184;2024-01-15T10:06:21;2.60;;;2.27;;
2892;SDS011;1456;51.840;12.184;2024-01-15T10:08:48;2.57;;;2.37;;
2892;SDS011;1456;51.840;12.184;2024-01-15T10:11:15;2.87;;;2.37;;
2892;SDS011;1456;51.840;12.184;2024-01-15T10:13:41;2.70;;;2.27;;
2892;SDS011;1456;51.840;12.184;2024-01-15T10:16:10;2.50;;;2.30;;
2892;SDS011;1456;51.840;12.184;2024-01-15T10:18:36;3.30;;;1.90;;
2892;SDS011;1456;51.840;12.184;2024-01-15T10:21:02;2.80;;;2.60;;
2892;SDS011;1456;51.840;12.184;2024-01-15T10:23:29;3.07;;;2.70;;
2892;SDS011;1456;51.840;12.184;2024-01-15T10:25:57;3.47;;;2.60;;
2892;SDS011;1456;51.840;12.184;2024-01-15T10:28:23;2.50;;;2.40;;
2892;SDS011;1456;51.840;12.184;2024-01-15T10:30:52;2.90;;;2.70;;
2892;SDS011;1456;51.840;12.184;2024-01-15T10:33:22;3.43;;;2.70;;
2892;SDS011;1456;51.840;12.184;2024-01-15T10:35:53;2.90;;;2.70;;
2892;SDS011;1456;51.840;12.184;2024-01-15T10:38:20;2.63;;;2.40;;
2892;SDS011;1456;51.840;12.184;2024-01-15T10:40:53;2.73;;;2.53;;
2892;SDS011;1456;51.840;12.184;2024-01-15T10:43:19;3.90;;;2.80;;
2892;SDS011;1456;51.840;12.184;2024-01-15T10:45:49;4.53;;;2.70;;
2892;SDS011;1456;51.840;12.184;2024-01-15T10:48:17;4.97;;;3.40;;
2892;SDS011;1456;51.840;12.184;2024-01-15T10:50:44;2.83;;;2.73;;
2892;SDS011;1456;51.840;12.184;2024-01-15T10:53:15;2.13;;;2.13;;
2892;SDS011;1456;51.840;12.184;2024-01-15T10:55:42;2.10;;;1.90;;
2892;SDS011;1456;51.840;12.184;2024-01-15T10:58:08;1.43;;;1.33;;
2892;SDS011;1456;51.840;12.184;2024-01-15T11:00:34;1.87;;;1.77;;
2892;SDS011;1456;51.840;12.184;2024-01-15T11:03:02;2.23;;;1.63;;
2892;SDS011;1456;51.840;12.184;2024-01-15T11:05:33;1.30;;;1.20;;
2892;SDS011;1456;51.840;12.184;2024-01-15T11:08:04;1.20;;;1.10;;
2892;SDS011;1456;51.840;12.184;2024-01-15T11:13:10;1.27;;;1.20;;
2892;SDS011;1456;51.840;12.184;2024-01-15T11:16:00;1.70;;;1.70;;
2892;SDS011;1456;51.840;12.184;2024-01-15T11:18:28;1.43;;;1.43;;
2892;SDS011;1456;51.840;12.184;2024-01-15T11:23:41;1.77;;;1.67;;
2892;SDS011;1456;51.840;12.184;2024-01-15T11:26:26;2.33;;;1.73;;
2892;SDS011;1456;51.840;12.184;2024-01-15T11:28:56;1.90;;;1.80;;
2892;SDS011;1456;51.840;12.184;2024-01-15T11:34:09;1.73;;;1.63;;
2892;SDS011;1456;51.840;12.184;2024-01-15T11:39:41;3.73;;;1.57;;
2892;SDS011;1456;51.840;12.184;2024-01-15T11:42:11;2.03;;;1.60;;
2892;SDS011;1456;51.840;12.184;2024-01-15T11:44:38;2.30;;;2.00;;
2892;SDS011;1456;51.840;12.184;2024-01-15T11:47:04;2.53;;;2.20;;
2892;SDS011;1456;51.840;12.184;2024-01-15T11:52:10;2.30;;;2.20;;
2892;SDS011;1456;51.840;12.184;2024-01-15T11:54:37;2.57;;;2.37;;
2892;SDS011;1456;51.840;12.184;2024-01-15T11:57:08;2.80;;;2.60;;
2892;SDS011;1456;51.840;12.184;2024-01-15T11:59:39;5.63;;;2.40;;
2892;SDS011;1456;51.840;12.184;2024-01-15T12:02:05;3.53;;;2.90;;
2892;SDS011;1456;51.840;12.184;2024-01-15T12:04:33;3.23;;;2.47;;
2892;SDS011;1456;51.840;12.184;2024-01-15T12:06:58;2.60;;;2.50;;
2892;SDS011;1456;51.840;12.184;2024-01-15T12:09:24;4.47;;;3.70;;
2892;SDS011;1456;51.840;12.184;2024-01-15T12:12:07;3.30;;;3.00;;
2892;SDS011;1456;51.840;12.184;2024-01-15T12:14:37;4.50;;;3.40;;
2892;SDS011;1456;51.840;12.184;2024-01-15T12:17:03;3.80;;;3.70;;
2892;SDS011;1456;51.840;12.184;2024-01-15T12:19:29;3.80;;;3.70;;
2892;SDS011;1456;51.840;12.184;2024-01-15T12:21:55;6.83;;;3.70;;
2892;SDS011;1456;51.840;12.184;2024-01-15T12:24:21;3.03;;;2.93;;
2892;SDS011;1456;51.840;12.184;2024-01-15T12:26:47;8.83;;;2.73;;
2892;SDS011;1456;51.840;12.184;2024-01-15T12:29:13;5.20;;;4.90;;
2892;SDS011;1456;51.840;12.184;2024-01-15T12:31:38;3.60;;;3.50;;
2892;SDS011;1456;51.840;12.184;2024-01-15T12:34:04;4.43;;;3.57;;
2892;SDS011;1456;51.840;12.184;2024-01-15T12:36:30;4.77;;;4.37;;
2892;SDS011;1456;51.840;12.184;2024-01-15T12:38:59;3.80;;;3.63;;
2892;SDS011;1456;51.840;12.184;2024-01-15T12:41:25;4.83;;;3.57;;
2892;SDS011;1456;51.840;12.184;2024-01-15T12:43:51;4.17;;;3.97;;
2892;SDS011;1456;51.840;12.184;2024-01-15T12:46:17;4.50;;;4.30;;
2892;SDS011;1456;51.840;12.184;2024-01-15T12:48:44;4.50;;;4.30;;
2892;SDS011;1456;51.840;12.184;2024-01-15T12:51:10;4.27;;;4.27;;
2892;SDS011;1456;51.840;12.184;2024-01-15T12:53:35;4.23;;;4.03;;
2892;SDS011;1456;51.840;12.184;2024-01-15T12:56:01;4.53;;;4.33;;
2892;SDS011;1456;51.840;12.184;2024-01-15T12:58:27;4.97;;;4.87;;
2892;SDS011;1456;51.840;12.184;2024-01-15T13:00:53;4.03;;;3.80;;
2892;SDS011;1456;51.840;12.184;2024-01-15T13:03:18;4.00;;;3.80;;
2892;SDS011;1456;51.840;12.184;2024-01-15T13:05:44;4.23;;;4.10;;
2892;SDS011;1456;51.840;12.184;2024-01-15T13:08:10;5.70;;;5.40;;
2892;SDS011;1456;51.840;12.184;2024-01-15T13:10:36;4.50;;;4.50;;
2892;SDS011;1456;51.840;12.184;2024-01-15T13:13:01;4.40;;;4.33;;
2892;SDS011;1456;51.840;12.184;2024-01-15T13:15:27;4.87;;;4.80;;
2892;SDS011;1456;51.840;12.184;2024-01-15T13:17:53;6.07;;;5.67;;
2892;SDS011;1456;51.840;12.184;2024-01-15T13:20:19;5.90;;;5.80;;
2892;SDS011;1456;51.840;12.184;2024-01-15T13:22:44;5.57;;;5.47;;
2892;SDS011;1456;51.840;12.184;2024-01-15T13:25:11;5.27;;;5.17;;
2892;SDS011;1456;51.840;12.184;2024-01-15T13:27:36;6.10;;;5.80;;
2892;SDS011;1456;51.840;12.184;2024-01-15T13:30:03;6.30;;;6.20;;
2892;SDS011;1456;51.840;12.184;2024-01-15T13:32:29;5.70;;;5.60;;
2892;SDS011;1456;51.840;12.184;2024-01-15T13:34:55;7.47;;;7.27;;
2892;SDS011;1456;51.840;12.184;2024-01-15T13:37:21;8.57;;;8.10;;
2892;SDS011;1456;51.840;12.184;2024-01-15T13:39:49;1.50;;;1.43;;
2892;SDS011;1456;51.840;12.184;2024-01-15T13:42:16;7.27;;;7.07;;
2892;SDS011;1456;51.840;12.184;2024-01-15T13:44:42;6.80;;;6.60;;
2892;SDS011;1456;51.840;12.184;2024-01-15T13:47:08;7.00;;;6.77;;
2892;SDS011;1456;51.840;12.184;2024-01-15T13:49:34;6.70;;;6.40;;
2892;SDS011;1456;51.840;12.184;2024-01-15T13:52:01;6.43;;;5.93;;
2892;SDS011;1456;51.840;12.184;2024-01-15T13:54:29;6.50;;;6.30;;
2892;SDS011;1456;51.840;12.184;2024-01-15T13:56:55;4.53;;;4.43;;
2892;SDS011;1456;51.840;12.184;2024-01-15T13:59:20;5.93;;;5.43;;
2892;SDS011;1456;51.840;12.184;2024-01-15T14:01:46;3.93;;;3.80;;
2892;SDS011;1456;51.840;12.184;2024-01-15T14:04:12;5.10;;;4.80;;
2892;SDS011;1456;51.840;12.184;2024-01-15T14:06:38;3.70;;;3.60;;
2892;SDS011;1456;51.840;12.184;2024-01-15T14:09:04;4.50;;;4.30;;
2892;SDS011;1456;51.840;12.184;2024-01-15T14:11:30;4.70;;;4.50;;
2892;SDS011;1456;51.840;12.184;2024-01-15T14:13:56;4.33;;;4.27;;
2892;SDS011;1456;51.840;12.184;2024-01-15T14:16:22;5.77;;;5.77;;
2892;SDS011;1456;51.840;12.184;2024-01-15T14:18:47;5.40;;;5.20;;
2892;SDS011;1456;51.840;12.184;2024-01-15T14:21:13;6.37;;;6.27;;
2892;SDS011;1456;51.840;12.184;2024-01-15T14:23:39;6.40;;;5.90;;
2892;SDS011;1456;51.840;12.184;2024-01-15T14:26:05;4.73;;;1.40;;
2892;SDS011;1456;51.840;12.184;2024-01-15T14:28:31;1.43;;;1.33;;
2892;SDS011;1456;51.840;12.184;2024-01-15T14:30:57;6.50;;;6.30;;
2892;SDS011;1456;51.840;12.184;2024-01-15T14:33:25;6.60;;;6.30;;
2892;SDS011;1456;51.840;12.184;2024-01-15T14:35:52;6.67;;;6.13;;
2892;SDS011;1456;51.840;12.184;2024-01-15T14:38:18;6.50;;;6.10;;
2892;SDS011;1456;51.840;12.184;2024-01-15T14:40:43;6.60;;;6.40;;
2892;SDS011;1456;51.840;12.184;2024-01-15T14:43:09;8.03;;;7.30;;
2892;SDS011;1456;51.840;12.184;2024-01-15T14:45:35;7.80;;;7.30;;
2892;SDS011;1456;51.840;12.184;2024-01-15T14:48:01;7.33;;;6.97;;
2892;SDS011;1456;51.840;12.184;2024-01-15T14:50:27;6.00;;;5.90;;
2892;SDS011;1456;51.840;12.184;2024-01-15T14:52:53;6.23;;;4.43;;
2892;SDS011;1456;51.840;12.184;2024-01-15T14:55:18;12.33;;;11.13;;
2892;SDS011;1456;51.840;12.184;2024-01-15T14:57:45;7.03;;;6.63;;
2892;SDS011;1456;51.840;12.184;2024-01-15T15:00:10;6.93;;;6.53;;
2892;SDS011;1456;51.840;12.184;2024-01-15T15:02:38;5.97;;;5.67;;
2892;SDS011;1456;51.840;12.184;2024-01-15T15:05:04;9.67;;;9.50;;
2892;SDS011;1456;51.840;12.184;2024-01-15T15:07:30;7.37;;;7.00;;
2892;SDS011;1456;51.840;12.184;2024-01-15T15:09:55;7.53;;;7.20;;